Ft Sturla — IBXV — position and weather

sailwx.info

Track history (hours):
 
Tides and Currents Weather Stations Pressure Air Temp Water Temp Dewpoint Dewpoint Depression Visibility Wind Speed Wind Dir Waves Ship Positions

Ft Sturla

Last reported at 2016-Apr-29 01:27 UTC. Time now 2016-May-04 15:29 UTC.
Position N 36°30' E 015°02'.

Length 120 m; draft 5.7 m.

Type: Tanker. MMSI: 247282200.

Date/timePositionNaut miles runAvg speedWind from/ knotsBaromVisibWave heightAir tempDewpointWater temp
2016-Apr-29 01:27N 36°30' E 015°02'18 9.5
2016-Apr-28 23:33N 36°22' E 014°41'10 9.7
2016-Apr-28 22:33N 36°17' E 014°31'9 9.3
2016-Apr-28 21:33N 36°13' E 014°20'9 9.3
2016-Apr-28 20:33N 36°09' E 014°10'8 8.3
2016-Apr-28 19:33N 36°01' E 014°07'1010.2
2016-Apr-28 18:33N 35°58' E 014°19'0 0.0
2016-Apr-28 17:31N 35°58' E 014°19'0 0.0
2016-Apr-28 16:33N 35°58' E 014°19'0 0.0
2016-Apr-28 15:33N 35°58' E 014°19'0 0.0
2016-Apr-28 14:33N 35°58' E 014°19'0 0.0
2016-Apr-28 13:33N 35°58' E 014°19'4 4.2
2016-Apr-28 12:33N 35°57' E 014°14'1 0.9
2016-Apr-28 11:33N 35°57' E 014°13'5 4.8
2016-Apr-28 10:33N 35°53' E 014°15'9 9.1
2016-Apr-28 09:33N 35°45' E 014°22'19 9.3
2016-Apr-28 07:33N 35°51' E 014°44'4 3.9
2016-Apr-28 06:33N 35°55' E 014°46'0 0.0
2016-Apr-28 05:33N 35°55' E 014°46'0 0.0
2016-Apr-28 04:33N 35°55' E 014°46'0 0.0
2016-Apr-28 03:33N 35°55' E 014°46'0 0.0
2016-Apr-28 02:33N 35°55' E 014°46'0 0.0
2016-Apr-28 01:33N 35°55' E 014°46'0 0.0
2016-Apr-28 00:33N 35°55' E 014°46'0 0.0
2016-Apr-27 23:33N 35°55' E 014°46'0 0.0
2016-Apr-27 22:33N 35°55' E 014°46'0 0.0
2016-Apr-27 21:33N 35°55' E 014°46'0 0.0
2016-Apr-27 20:28N 35°55' E 014°46'0 0.0
2016-Apr-27 19:30N 35°55' E 014°46'3 3.4
2016-Apr-27 18:33N 35°55' E 014°50'1 0.5
2016-Apr-27 16:25N 35°55' E 014°51'0 0.0
2016-Apr-27 15:04N 35°55' E 014°51'0 0.0
2016-Apr-27 14:19N 35°55' E 014°51'0 0.1
2016-Apr-27 13:13N 35°55' E 014°51'0 0.0
2016-Apr-27 09:16N 35°55' E 014°51'0 0.0
2016-Apr-27 08:31N 35°55' E 014°51'0 0.0
2016-Apr-27 07:28N 35°55' E 014°51'0 0.0
2016-Apr-27 06:31N 35°55' E 014°51'0 0.0
2016-Apr-27 05:31N 35°55' E 014°51'0 0.0
2016-Apr-27 02:31N 35°55' E 014°51'0 0.1
2016-Apr-27 01:31N 35°55' E 014°51'0 0.0
2016-Apr-27 00:19N 35°55' E 014°51'0 0.0
2016-Apr-26 21:13N 35°55' E 014°51'0 0.0
2016-Apr-26 20:22N 35°55' E 014°51'0 0.0
2016-Apr-26 15:25N 35°55' E 014°51'0 0.0
2016-Apr-26 14:22N 35°55' E 014°51'0 0.0
2016-Apr-26 07:07N 35°55' E 014°51'5 5.1
2016-Apr-26 06:14N 35°59' E 014°48'15 8.7
2016-Apr-26 04:31N 36°10' E 014°37'8 8.3
2016-Apr-26 03:33N 36°17' E 014°31'8 8.0
2016-Apr-26 02:34N 36°23' E 014°25'8 8.1
2016-Apr-26 01:34N 36°30' E 014°19'3 3.2
2016-Apr-26 00:33N 36°27' E 014°22'6 6.3
2016-Apr-25 23:33N 36°22' E 014°26'6 5.9
2016-Apr-25 22:33N 36°17' E 014°30'6 6.4
2016-Apr-25 21:33N 36°12' E 014°35'6 5.9
2016-Apr-25 20:27N 36°07' E 014°40'5 5.7
2016-Apr-25 19:32N 36°03' E 014°43'5 5.2
2016-Apr-25 18:33N 35°59' E 014°47'5 4.5
2016-Apr-25 17:34N 35°55' E 014°51'1 1.0
2016-Apr-25 16:20N 35°54' E 014°52'1 0.5
2016-Apr-25 14:17N 35°55' E 014°51'0 0.1
2016-Apr-25 11:19N 35°55' E 014°50'0 0.0
2016-Apr-25 06:28N 35°55' E 014°50'0 0.0
2016-Apr-24 15:25N 35°55' E 014°50'0 0.0
2016-Apr-24 12:16N 35°55' E 014°50'0 0.0
2016-Apr-24 05:28N 35°55' E 014°50'0 0.0
2016-Apr-24 04:31N 35°55' E 014°50'0 0.0
2016-Apr-24 02:25N 35°55' E 014°50'0 0.0
2016-Apr-23 23:28N 35°55' E 014°50'0 0.0
2016-Apr-23 22:16N 35°55' E 014°50'0 0.0
2016-Apr-23 21:31N 35°55' E 014°50'0 0.0
2016-Apr-23 20:31N 35°55' E 014°50'0 0.0
2016-Apr-23 19:31N 35°55' E 014°50'0 0.0
2016-Apr-23 18:31N 35°55' E 014°50'0 0.0
2016-Apr-23 17:31N 35°55' E 014°50'0 0.0
2016-Apr-23 16:31N 35°55' E 014°50'0 0.0
2016-Apr-23 15:07N 35°55' E 014°50'0 0.0
2016-Apr-23 14:31N 35°55' E 014°50'0 0.0
2016-Apr-23 13:19N 35°55' E 014°50'0 0.1
2016-Apr-23 11:22N 35°55' E 014°50'0 0.0
2016-Apr-23 08:25N 35°55' E 014°50'0 0.1
2016-Apr-23 07:32N 35°55' E 014°50'4310.6
2016-Apr-23 03:28N 36°33' E 015°15'1010.6
2016-Apr-23 02:32N 36°42' E 015°21'7 7.1
2016-Apr-23 01:30N 36°48' E 015°26'2110.9
2016-Apr-22 23:33N 37°06' E 015°41'4210.3
2016-Apr-22 19:31N 37°40' E 016°10'  
2016-Apr-20 02:30N 44°30' E 012°29'0 0.1
2016-Apr-20 01:32N 44°30' E 012°29'0 0.0
2016-Apr-20 00:32N 44°30' E 012°29'0 0.0
2016-Apr-19 23:32N 44°30' E 012°29'0 0.0
2016-Apr-19 22:32N 44°30' E 012°29'0 0.0
2016-Apr-19 21:29N 44°30' E 012°29'0 0.1
2016-Apr-19 20:32N 44°30' E 012°29'  
Track history (hours):
 
Tides and Currents Weather Stations Pressure Air Temp Water Temp Dewpoint Dewpoint Depression Visibility Wind Speed Wind Dir Waves Ship Positions

Ft Sturla

Last reported at 2016-Apr-29 01:27 UTC. Time now 2016-May-04 15:29 UTC.
Position N 36°30' E 015°02'.

Length 120 m; draft 5.7 m.

Type: Tanker. MMSI: 247282200.

Date/timePositionNaut miles runAvg speedWind from/ knotsBaromVisibWave heightAir tempDewpointWater temp
2016-Apr-29 01:27N 36°30' E 015°02'18 9.5
2016-Apr-28 23:33N 36°22' E 014°41'10 9.7
2016-Apr-28 22:33N 36°17' E 014°31'9 9.3
2016-Apr-28 21:33N 36°13' E 014°20'9 9.3
2016-Apr-28 20:33N 36°09' E 014°10'8 8.3
2016-Apr-28 19:33N 36°01' E 014°07'1010.2
2016-Apr-28 18:33N 35°58' E 014°19'0 0.0
2016-Apr-28 17:31N 35°58' E 014°19'0 0.0
2016-Apr-28 16:33N 35°58' E 014°19'0 0.0
2016-Apr-28 15:33N 35°58' E 014°19'0 0.0
2016-Apr-28 14:33N 35°58' E 014°19'0 0.0
2016-Apr-28 13:33N 35°58' E 014°19'4 4.2
2016-Apr-28 12:33N 35°57' E 014°14'1 0.9
2016-Apr-28 11:33N 35°57' E 014°13'5 4.8
2016-Apr-28 10:33N 35°53' E 014°15'9 9.1
2016-Apr-28 09:33N 35°45' E 014°22'19 9.3
2016-Apr-28 07:33N 35°51' E 014°44'4 3.9
2016-Apr-28 06:33N 35°55' E 014°46'0 0.0
2016-Apr-28 05:33N 35°55' E 014°46'0 0.0
2016-Apr-28 04:33N 35°55' E 014°46'0 0.0
2016-Apr-28 03:33N 35°55' E 014°46'0 0.0
2016-Apr-28 02:33N 35°55' E 014°46'0 0.0
2016-Apr-28 01:33N 35°55' E 014°46'0 0.0
2016-Apr-28 00:33N 35°55' E 014°46'0 0.0
2016-Apr-27 23:33N 35°55' E 014°46'0 0.0
2016-Apr-27 22:33N 35°55' E 014°46'0 0.0
2016-Apr-27 21:33N 35°55' E 014°46'0 0.0
2016-Apr-27 20:28N 35°55' E 014°46'0 0.0
2016-Apr-27 19:30N 35°55' E 014°46'3 3.4
2016-Apr-27 18:33N 35°55' E 014°50'1 0.5
2016-Apr-27 16:25N 35°55' E 014°51'0 0.0
2016-Apr-27 15:04N 35°55' E 014°51'0 0.0
2016-Apr-27 14:19N 35°55' E 014°51'0 0.1
2016-Apr-27 13:13N 35°55' E 014°51'0 0.0
2016-Apr-27 09:16N 35°55' E 014°51'0 0.0
2016-Apr-27 08:31N 35°55' E 014°51'0 0.0
2016-Apr-27 07:28N 35°55' E 014°51'0 0.0
2016-Apr-27 06:31N 35°55' E 014°51'0 0.0
2016-Apr-27 05:31N 35°55' E 014°51'0 0.0
2016-Apr-27 02:31N 35°55' E 014°51'0 0.1
2016-Apr-27 01:31N 35°55' E 014°51'0 0.0
2016-Apr-27 00:19N 35°55' E 014°51'0 0.0
2016-Apr-26 21:13N 35°55' E 014°51'0 0.0
2016-Apr-26 20:22N 35°55' E 014°51'0 0.0
2016-Apr-26 15:25N 35°55' E 014°51'0 0.0
2016-Apr-26 14:22N 35°55' E 014°51'0 0.0
2016-Apr-26 07:07N 35°55' E 014°51'5 5.1
2016-Apr-26 06:14N 35°59' E 014°48'15 8.7
2016-Apr-26 04:31N 36°10' E 014°37'8 8.3
2016-Apr-26 03:33N 36°17' E 014°31'8 8.0
2016-Apr-26 02:34N 36°23' E 014°25'8 8.1
2016-Apr-26 01:34N 36°30' E 014°19'3 3.2
2016-Apr-26 00:33N 36°27' E 014°22'6 6.3
2016-Apr-25 23:33N 36°22' E 014°26'6 5.9
2016-Apr-25 22:33N 36°17' E 014°30'6 6.4
2016-Apr-25 21:33N 36°12' E 014°35'6 5.9
2016-Apr-25 20:27N 36°07' E 014°40'5 5.7
2016-Apr-25 19:32N 36°03' E 014°43'5 5.2
2016-Apr-25 18:33N 35°59' E 014°47'5 4.5
2016-Apr-25 17:34N 35°55' E 014°51'1 1.0
2016-Apr-25 16:20N 35°54' E 014°52'1 0.5
2016-Apr-25 14:17N 35°55' E 014°51'0 0.1
2016-Apr-25 11:19N 35°55' E 014°50'0 0.0
2016-Apr-25 06:28N 35°55' E 014°50'0 0.0
2016-Apr-24 15:25N 35°55' E 014°50'0 0.0
2016-Apr-24 12:16N 35°55' E 014°50'0 0.0
2016-Apr-24 05:28N 35°55' E 014°50'0 0.0
2016-Apr-24 04:31N 35°55' E 014°50'0 0.0
2016-Apr-24 02:25N 35°55' E 014°50'0 0.0
2016-Apr-23 23:28N 35°55' E 014°50'0 0.0
2016-Apr-23 22:16N 35°55' E 014°50'0 0.0
2016-Apr-23 21:31N 35°55' E 014°50'0 0.0
2016-Apr-23 20:31N 35°55' E 014°50'0 0.0
2016-Apr-23 19:31N 35°55' E 014°50'0 0.0
2016-Apr-23 18:31N 35°55' E 014°50'0 0.0
2016-Apr-23 17:31N 35°55' E 014°50'0 0.0
2016-Apr-23 16:31N 35°55' E 014°50'0 0.0
2016-Apr-23 15:07N 35°55' E 014°50'0 0.0
2016-Apr-23 14:31N 35°55' E 014°50'0 0.0
2016-Apr-23 13:19N 35°55' E 014°50'0 0.1
2016-Apr-23 11:22N 35°55' E 014°50'0 0.0
2016-Apr-23 08:25N 35°55' E 014°50'0 0.1
2016-Apr-23 07:32N 35°55' E 014°50'4310.6
2016-Apr-23 03:28N 36°33' E 015°15'1010.6
2016-Apr-23 02:32N 36°42' E 015°21'7 7.1
2016-Apr-23 01:30N 36°48' E 015°26'2110.9
2016-Apr-22 23:33N 37°06' E 015°41'4210.3
2016-Apr-22 19:31N 37°40' E 016°10'  
2016-Apr-20 02:30N 44°30' E 012°29'0 0.1
2016-Apr-20 01:32N 44°30' E 012°29'0 0.0
2016-Apr-20 00:32N 44°30' E 012°29'0 0.0
2016-Apr-19 23:32N 44°30' E 012°29'0 0.0
2016-Apr-19 22:32N 44°30' E 012°29'0 0.0
2016-Apr-19 21:29N 44°30' E 012°29'0 0.1
2016-Apr-19 20:32N 44°30' E 012°29'  

Dump ship's entire track history